sensor_id;sensor_type;location;lat;lon;timestamp;pressure;altitude;pressure_sealevel;temperature;humidity
49689;BME280;70518;51.400;7.428;2023-06-22T00:01:24;160222.69;;;24.33;62.54
49689;BME280;70518;51.400;7.428;2023-06-22T00:03:50;160242.25;;;24.41;61.27
49689;BME280;70518;51.400;7.428;2023-06-22T00:06:15;160243.50;;;24.41;61.04
49689;BME280;70518;51.400;7.428;2023-06-22T00:08:41;160242.25;;;24.41;62.10
49689;BME280;70518;51.400;7.428;2023-06-22T00:11:06;160256.53;;;24.46;63.21
49689;BME280;70518;51.400;7.428;2023-06-22T00:13:31;160274.72;;;24.53;63.39
49689;BME280;70518;51.400;7.428;2023-06-22T00:15:57;160263.03;;;24.49;63.96
49689;BME280;70518;51.400;7.428;2023-06-22T00:18:22;160235.69;;;24.38;64.68
49689;BME280;70518;51.400;7.428;2023-06-22T00:20:53;160229.19;;;24.36;64.76
49689;BME280;70518;51.400;7.428;2023-06-22T00:23:21;160234.44;;;24.38;63.98
49689;BME280;70518;51.400;7.428;2023-06-22T00:25:49;160220.06;;;24.32;63.70
49689;BME280;70518;51.400;7.428;2023-06-22T00:28:14;160225.31;;;24.34;63.23
49689;BME280;70518;51.400;7.428;2023-06-22T00:30:39;160229.19;;;24.36;62.56
49689;BME280;70518;51.400;7.428;2023-06-22T00:33:05;160225.31;;;24.34;62.46
49689;BME280;70518;51.400;7.428;2023-06-22T00:35:32;160207.09;;;24.27;62.18
49689;BME280;70518;51.400;7.428;2023-06-22T00:37:59;160225.31;;;24.34;61.75
49689;BME280;70518;51.400;7.428;2023-06-22T00:40:29;160247.41;;;24.43;61.21
49689;BME280;70518;51.400;7.428;2023-06-22T00:42:54;160214.88;;;24.30;61.56
49689;BME280;70518;51.400;7.428;2023-06-22T00:45:21;160201.91;;;24.25;61.58
49689;BME280;70518;51.400;7.428;2023-06-22T00:47:49;160170.69;;;24.13;62.23
49689;BME280;70518;51.400;7.428;2023-06-22T00:50:20;160161.53;;;24.09;62.42
49689;BME280;70518;51.400;7.428;2023-06-22T00:52:57;160155.03;;;24.07;62.45
49689;BME280;70518;51.400;7.428;2023-06-22T00:55:23;160147.22;;;24.04;62.76
49689;BME280;70518;51.400;7.428;2023-06-22T00:57:49;160127.75;;;23.96;62.91
49689;BME280;70518;51.400;7.428;2023-06-22T01:00:15;160129.00;;;23.97;62.70
49689;BME280;70518;51.400;7.428;2023-06-22T01:02:45;160123.81;;;23.95;62.71
49689;BME280;70518;51.400;7.428;2023-06-22T01:05:14;160130.31;;;23.97;62.98
49689;BME280;70518;51.400;7.428;2023-06-22T01:13:40;160155.03;;;24.07;62.15
49689;BME280;70518;51.400;7.428;2023-06-22T01:16:14;160165.50;;;24.11;62.39
49689;BME280;70518;51.400;7.428;2023-06-22T01:18:43;160161.53;;;24.09;62.18
49689;BME280;70518;51.400;7.428;2023-06-22T01:21:12;160164.19;;;24.10;62.34
49689;BME280;70518;51.400;7.428;2023-06-22T01:23:51;160168.06;;;24.12;62.46
49689;BME280;70518;51.400;7.428;2023-06-22T01:26:28;160190.19;;;24.20;62.46
49689;BME280;70518;51.400;7.428;2023-06-22T01:28:58;160173.31;;;24.14;62.45
49689;BME280;70518;51.400;7.428;2023-06-22T01:31:26;160157.66;;;24.08;62.88
49689;BME280;70518;51.400;7.428;2023-06-22T01:34:00;160157.66;;;24.08;62.76
49689;BME280;70518;51.400;7.428;2023-06-22T01:36:27;160186.28;;;24.19;62.33
49689;BME280;70518;51.400;7.428;2023-06-22T01:38:54;160182.38;;;24.17;62.39
49689;BME280;70518;51.400;7.428;2023-06-22T01:41:25;160182.38;;;24.17;62.57
49689;BME280;70518;51.400;7.428;2023-06-22T01:43:51;160162.84;;;24.10;63.61
49689;BME280;70518;51.400;7.428;2023-06-22T01:46:17;160173.31;;;24.14;64.59
49689;BME280;70518;51.400;7.428;2023-06-22T01:48:45;160170.69;;;24.13;65.41
49689;BME280;70518;51.400;7.428;2023-06-22T01:51:11;160160.22;;;24.09;65.58
49689;BME280;70518;51.400;7.428;2023-06-22T01:53:37;160155.03;;;24.07;65.88
49689;BME280;70518;51.400;7.428;2023-06-22T01:56:02;160100.41;;;23.86;66.47
49689;BME280;70518;51.400;7.428;2023-06-22T01:58:29;160077.00;;;23.76;66.79
49689;BME280;70518;51.400;7.428;2023-06-22T02:01:10;160077.00;;;23.76;66.68
49689;BME280;70518;51.400;7.428;2023-06-22T02:03:44;160077.00;;;23.76;66.47
49689;BME280;70518;51.400;7.428;2023-06-22T02:06:17;160084.81;;;23.79;66.53
49689;BME280;70518;51.400;7.428;2023-06-22T02:08:51;160083.50;;;23.79;66.54
49689;BME280;70518;51.400;7.428;2023-06-22T02:11:20;160079.63;;;23.77;66.53
49689;BME280;70518;51.400;7.428;2023-06-22T02:13:47;160096.53;;;23.84;65.78
49689;BME280;70518;51.400;7.428;2023-06-22T02:16:14;160092.59;;;23.83;65.59
49689;BME280;70518;51.400;7.428;2023-06-22T02:18:48;160088.72;;;23.81;64.95
49689;BME280;70518;51.400;7.428;2023-06-22T02:21:16;160071.81;;;23.74;65.66
49689;BME280;70518;51.400;7.428;2023-06-22T02:23:41;160086.13;;;23.80;65.37
49689;BME280;70518;51.400;7.428;2023-06-22T02:26:09;160079.63;;;23.77;65.31
49689;BME280;70518;51.400;7.428;2023-06-22T02:28:34;160040.59;;;23.62;66.01
49689;BME280;70518;51.400;7.428;2023-06-22T02:31:01;160030.19;;;23.58;65.96
49689;BME280;70518;51.400;7.428;2023-06-22T02:33:29;160045.78;;;23.64;66.33
49689;BME280;70518;51.400;7.428;2023-06-22T02:35:55;160045.78;;;23.64;65.79
49689;BME280;70518;51.400;7.428;2023-06-22T02:38:20;160041.91;;;23.63;65.91
49689;BME280;70518;51.400;7.428;2023-06-22T02:40:46;160027.63;;;23.57;66.06
49689;BME280;70518;51.400;7.428;2023-06-22T02:43:12;160014.59;;;23.52;66.52
49689;BME280;70518;51.400;7.428;2023-06-22T02:45:37;160001.59;;;23.47;66.75
49689;BME280;70518;51.400;7.428;2023-06-22T02:48:03;159975.53;;;23.37;67.39
49689;BME280;70518;51.400;7.428;2023-06-22T02:50:28;159962.56;;;23.32;67.15
49689;BME280;70518;51.400;7.428;2023-06-22T02:52:54;159959.94;;;23.31;67.08
49689;BME280;70518;51.400;7.428;2023-06-22T02:55:19;159963.84;;;23.33;67.24
49689;BME280;70518;51.400;7.428;2023-06-22T02:57:44;159974.28;;;23.37;67.52
49689;BME280;70518;51.400;7.428;2023-06-22T03:00:12;159959.94;;;23.31;68.49
49689;BME280;70518;51.400;7.428;2023-06-22T03:02:43;159950.88;;;23.28;68.70
49689;BME280;70518;51.400;7.428;2023-06-22T03:05:09;159941.78;;;23.24;69.36
49689;BME280;70518;51.400;7.428;2023-06-22T03:07:38;159930.03;;;23.19;69.67
49689;BME280;70518;51.400;7.428;2023-06-22T03:10:04;159923.56;;;23.17;69.74
49689;BME280;70518;51.400;7.428;2023-06-22T03:12:34;159917.06;;;23.14;69.29
49689;BME280;70518;51.400;7.428;2023-06-22T03:14:59;159918.38;;;23.15;69.28
49689;BME280;70518;51.400;7.428;2023-06-22T03:17:24;159927.47;;;23.18;68.95
49689;BME280;70518;51.400;7.428;2023-06-22T03:19:50;159906.63;;;23.10;68.88
49689;BME280;70518;51.400;7.428;2023-06-22T03:22:15;159900.16;;;23.08;69.39
49689;BME280;70518;51.400;7.428;2023-06-22T03:24:40;159902.78;;;23.09;69.43
49689;BME280;70518;51.400;7.428;2023-06-22T03:27:06;159941.78;;;23.24;68.92
49689;BME280;70518;51.400;7.428;2023-06-22T03:29:31;159902.78;;;23.09;69.52
49689;BME280;70518;51.400;7.428;2023-06-22T03:31:56;159900.16;;;23.08;69.56
49689;BME280;70518;51.400;7.428;2023-06-22T03:34:22;159898.84;;;23.07;69.55
49689;BME280;70518;51.400;7.428;2023-06-22T03:36:47;159910.56;;;23.12;69.46
49689;BME280;70518;51.400;7.428;2023-06-22T03:39:12;159896.28;;;23.06;69.84
49689;BME280;70518;51.400;7.428;2023-06-22T03:41:38;159898.84;;;23.07;69.99
49689;BME280;70518;51.400;7.428;2023-06-22T03:44:04;159894.97;;;23.06;70.13
49689;BME280;70518;51.400;7.428;2023-06-22T03:46:29;159884.56;;;23.02;70.46
49689;BME280;70518;51.400;7.428;2023-06-22T03:48:54;159879.38;;;23.00;70.31
49689;BME280;70518;51.400;7.428;2023-06-22T03:51:20;159878.06;;;22.99;70.01
49689;BME280;70518;51.400;7.428;2023-06-22T03:53:45;159876.75;;;22.99;70.24
49689;BME280;70518;51.400;7.428;2023-06-22T03:56:10;159874.19;;;22.98;70.51
49689;BME280;70518;51.400;7.428;2023-06-22T03:58:36;159876.75;;;22.99;70.38
49689;BME280;70518;51.400;7.428;2023-06-22T04:01:02;159849.47;;;22.88;70.46
49689;BME280;70518;51.400;7.428;2023-06-22T04:03:27;159844.31;;;22.86;70.54
49689;BME280;70518;51.400;7.428;2023-06-22T04:05:52;159801.38;;;22.69;71.42
49689;BME280;70518;51.400;7.428;2023-06-22T04:08:18;159779.25;;;22.61;72.15
49689;BME280;70518;51.400;7.428;2023-06-22T04:10:46;159761.03;;;22.54;72.45
49689;BME280;70518;51.400;7.428;2023-06-22T04:13:11;159752.00;;;22.50;72.71
49689;BME280;70518;51.400;7.428;2023-06-22T04:15:37;159757.16;;;22.52;72.95
49689;BME280;70518;51.400;7.428;2023-06-22T04:18:02;159749.38;;;22.49;72.80
49689;BME280;70518;51.400;7.428;2023-06-22T04:20:27;159731.16;;;22.42;73.33
49689;BME280;70518;51.400;7.428;2023-06-22T04:22:53;159710.38;;;22.34;74.17
49689;BME280;70518;51.400;7.428;2023-06-22T04:25:19;159723.38;;;22.39;76.54
49689;BME280;70518;51.400;7.428;2023-06-22T04:27:44;159728.59;;;22.41;78.63
49689;BME280;70518;51.400;7.428;2023-06-22T04:30:10;159718.19;;;22.37;79.47
49689;BME280;70518;51.400;7.428;2023-06-22T04:32:36;159711.69;;;22.35;79.42
49689;BME280;70518;51.400;7.428;2023-06-22T04:35:04;159723.38;;;22.39;78.67
49689;BME280;70518;51.400;7.428;2023-06-22T04:37:30;159719.50;;;22.38;78.00
49689;BME280;70518;51.400;7.428;2023-06-22T04:39:55;159716.88;;;22.37;77.17
49689;BME280;70518;51.400;7.428;2023-06-22T04:42:21;159723.38;;;22.39;76.38
49689;BME280;70518;51.400;7.428;2023-06-22T04:44:46;159709.09;;;22.34;78.15
49689;BME280;70518;51.400;7.428;2023-06-22T04:47:11;159692.19;;;22.27;80.29
49689;BME280;70518;51.400;7.428;2023-06-22T04:49:37;159687.00;;;22.25;81.60
49689;BME280;70518;51.400;7.428;2023-06-22T04:52:04;159714.31;;;22.36;81.39
49689;BME280;70518;51.400;7.428;2023-06-22T04:54:30;159694.81;;;22.28;79.99
49689;BME280;70518;51.400;7.428;2023-06-22T04:57:02;159690.94;;;22.27;80.33
49689;BME280;70518;51.400;7.428;2023-06-22T04:59:30;159674.03;;;22.20;81.06
49689;BME280;70518;51.400;7.428;2023-06-22T05:01:59;159646.72;;;22.09;81.66
49689;BME280;70518;51.400;7.428;2023-06-22T05:04:25;159650.66;;;22.11;81.80
49689;BME280;70518;51.400;7.428;2023-06-22T05:06:52;159661.06;;;22.15;81.80
49689;BME280;70518;51.400;7.428;2023-06-22T05:09:18;159671.41;;;22.19;81.55
49689;BME280;70518;51.400;7.428;2023-06-22T05:11:44;159681.81;;;22.23;80.83
49689;BME280;70518;51.400;7.428;2023-06-22T05:14:09;159670.09;;;22.19;80.02
49689;BME280;70518;51.400;7.428;2023-06-22T05:16:35;159664.94;;;22.17;80.69
49689;BME280;70518;51.400;7.428;2023-06-22T05:19:01;159659.75;;;22.14;78.68
49689;BME280;70518;51.400;7.428;2023-06-22T05:21:28;159662.31;;;22.15;77.72
49689;BME280;70518;51.400;7.428;2023-06-22T05:23:53;159607.81;;;21.94;79.51
49689;BME280;70518;51.400;7.428;2023-06-22T05:26:19;159615.53;;;21.97;79.67
49689;BME280;70518;51.400;7.428;2023-06-22T05:28:46;159623.34;;;22.00;79.54
49689;BME280;70518;51.400;7.428;2023-06-22T05:31:14;159611.66;;;21.96;79.97
49689;BME280;70518;51.400;7.428;2023-06-22T05:33:41;159606.50;;;21.94;80.01
49689;BME280;70518;51.400;7.428;2023-06-22T05:36:07;159614.28;;;21.97;79.69
49689;BME280;70518;51.400;7.428;2023-06-22T05:38:32;159611.66;;;21.96;80.03
49689;BME280;70518;51.400;7.428;2023-06-22T05:40:58;159615.53;;;21.97;80.23
49689;BME280;70518;51.400;7.428;2023-06-22T05:43:23;159629.88;;;22.03;79.71
49689;BME280;70518;51.400;7.428;2023-06-22T05:45:48;159641.53;;;22.07;79.77
49689;BME280;70518;51.400;7.428;2023-06-22T05:48:14;159651.94;;;22.11;79.77
49689;BME280;70518;51.400;7.428;2023-06-22T05:50:39;159659.75;;;22.14;80.01
49689;BME280;70518;51.400;7.428;2023-06-22T05:53:04;159680.53;;;22.23;80.07
49689;BME280;70518;51.400;7.428;2023-06-22T05:55:31;159648.03;;;22.10;80.62
49689;BME280;70518;51.400;7.428;2023-06-22T05:57:57;159641.53;;;22.07;80.97
49689;BME280;70518;51.400;7.428;2023-06-22T06:00:22;159670.09;;;22.19;80.67
49689;BME280;70518;51.400;7.428;2023-06-22T06:02:48;159687.00;;;22.25;80.58
49689;BME280;70518;51.400;7.428;2023-06-22T06:05:14;159699.97;;;22.30;80.29
49689;BME280;70518;51.400;7.428;2023-06-22T06:07:40;159703.91;;;22.32;80.34
49689;BME280;70518;51.400;7.428;2023-06-22T06:10:06;159709.09;;;22.34;80.73
49689;BME280;70518;51.400;7.428;2023-06-22T06:12:32;159707.78;;;22.33;80.72
49689;BME280;70518;51.400;7.428;2023-06-22T06:14:57;159723.38;;;22.39;80.47
49689;BME280;70518;51.400;7.428;2023-06-22T06:17:22;159735.09;;;22.44;80.12
49689;BME280;70518;51.400;7.428;2023-06-22T06:19:48;159733.78;;;22.43;80.41
49689;BME280;70518;51.400;7.428;2023-06-22T06:22:13;159758.47;;;22.53;80.24
49689;BME280;70518;51.400;7.428;2023-06-22T06:24:38;159789.72;;;22.65;80.17
49689;BME280;70518;51.400;7.428;2023-06-22T06:27:04;159780.56;;;22.61;81.37
49689;BME280;70518;51.400;7.428;2023-06-22T06:29:30;159780.56;;;22.61;82.36
49689;BME280;70518;51.400;7.428;2023-06-22T06:31:55;159796.22;;;22.67;82.18
49689;BME280;70518;51.400;7.428;2023-06-22T06:34:22;159801.38;;;22.69;82.74
49689;BME280;70518;51.400;7.428;2023-06-22T06:36:47;159798.81;;;22.68;83.26
49689;BME280;70518;51.400;7.428;2023-06-22T06:39:12;159810.50;;;22.73;83.23
49689;BME280;70518;51.400;7.428;2023-06-22T06:41:38;159827.41;;;22.80;83.66
49689;BME280;70518;51.400;7.428;2023-06-22T06:44:03;159828.72;;;22.80;83.52
49689;BME280;70518;51.400;7.428;2023-06-22T06:46:28;159850.78;;;22.89;83.28
49689;BME280;70518;51.400;7.428;2023-06-22T06:48:54;159862.47;;;22.93;83.37
49689;BME280;70518;51.400;7.428;2023-06-22T06:51:19;159883.25;;;23.01;83.56
49689;BME280;70518;51.400;7.428;2023-06-22T06:53:44;159894.97;;;23.06;83.67
49689;BME280;70518;51.400;7.428;2023-06-22T06:56:10;159883.25;;;23.01;83.91
49689;BME280;70518;51.400;7.428;2023-06-22T06:58:35;159915.75;;;23.14;83.30
49689;BME280;70518;51.400;7.428;2023-06-22T07:01:01;159927.47;;;23.18;82.77
49689;BME280;70518;51.400;7.428;2023-06-22T07:03:28;159905.38;;;23.10;83.57
49689;BME280;70518;51.400;7.428;2023-06-22T07:05:53;159896.28;;;23.06;84.29
49689;BME280;70518;51.400;7.428;2023-06-22T07:08:18;159884.56;;;23.02;85.09
49689;BME280;70518;51.400;7.428;2023-06-22T07:10:43;159889.78;;;23.04;85.84
49689;BME280;70518;51.400;7.428;2023-06-22T07:13:09;159896.28;;;23.06;86.01
49689;BME280;70518;51.400;7.428;2023-06-22T07:15:34;159855.97;;;22.91;88.35
49689;BME280;70518;51.400;7.428;2023-06-22T07:17:59;159852.09;;;22.89;89.52
49689;BME280;70518;51.400;7.428;2023-06-22T07:20:25;159865.09;;;22.94;89.70
49689;BME280;70518;51.400;7.428;2023-06-22T07:22:51;159880.69;;;23.00;89.54
49689;BME280;70518;51.400;7.428;2023-06-22T07:25:16;159872.88;;;22.97;93.01
49689;BME280;70518;51.400;7.428;2023-06-22T07:27:56;159871.56;;;22.97;92.70
49689;BME280;70518;51.400;7.428;2023-06-22T07:30:21;159882.00;;;23.01;92.55
49689;BME280;70518;51.400;7.428;2023-06-22T07:32:47;159885.84;;;23.02;92.82
49689;BME280;70518;51.400;7.428;2023-06-22T07:35:12;159900.16;;;23.08;91.86
49689;BME280;70518;51.400;7.428;2023-06-22T07:37:37;159915.75;;;23.14;91.94
49689;BME280;70518;51.400;7.428;2023-06-22T07:40:03;159923.56;;;23.17;92.17
49689;BME280;70518;51.400;7.428;2023-06-22T07:42:33;159926.16;;;23.18;92.52
49689;BME280;70518;51.400;7.428;2023-06-22T07:44:58;159927.47;;;23.18;93.45
49689;BME280;70518;51.400;7.428;2023-06-22T07:47:23;159926.16;;;23.18;94.89
49689;BME280;70518;51.400;7.428;2023-06-22T07:49:53;159945.63;;;23.25;96.35
49689;BME280;70518;51.400;7.428;2023-06-22T07:52:20;159984.69;;;23.41;98.31
49689;BME280;70518;51.400;7.428;2023-06-22T07:54:46;159980.81;;;23.39;99.46
49689;BME280;70518;51.400;7.428;2023-06-22T07:57:11;160000.28;;;23.47;98.25
49689;BME280;70518;51.400;7.428;2023-06-22T07:59:37;160021.09;;;23.55;97.25
49689;BME280;70518;51.400;7.428;2023-06-22T08:02:03;160000.28;;;23.47;97.22
49689;BME280;70518;51.400;7.428;2023-06-22T08:04:29;159965.16;;;23.33;97.50
49689;BME280;70518;51.400;7.428;2023-06-22T08:06:56;159978.16;;;23.38;97.61
49689;BME280;70518;51.400;7.428;2023-06-22T08:09:21;160008.09;;;23.50;96.16
49689;BME280;70518;51.400;7.428;2023-06-22T08:11:46;160027.63;;;23.57;95.27
49689;BME280;70518;51.400;7.428;2023-06-22T08:14:13;160035.44;;;23.60;94.68
49689;BME280;70518;51.400;7.428;2023-06-22T08:16:38;160057.53;;;23.69;93.98
49689;BME280;70518;51.400;7.428;2023-06-22T08:19:03;160093.91;;;23.83;92.49
49689;BME280;70518;51.400;7.428;2023-06-22T08:21:28;160114.72;;;23.91;92.27
49689;BME280;70518;51.400;7.428;2023-06-22T08:23:54;160121.19;;;23.94;90.73
49689;BME280;70518;51.400;7.428;2023-06-22T08:26:19;160148.53;;;24.04;90.16
49689;BME280;70518;51.400;7.428;2023-06-22T08:28:45;160200.59;;;24.24;89.37
49689;BME280;70518;51.400;7.428;2023-06-22T08:31:10;160191.47;;;24.21;89.10
49689;BME280;70518;51.400;7.428;2023-06-22T08:33:37;160205.78;;;24.26;87.99
49689;BME280;70518;51.400;7.428;2023-06-22T08:36:03;160230.50;;;24.36;86.26
49689;BME280;70518;51.400;7.428;2023-06-22T08:38:31;160238.31;;;24.39;84.71
49689;BME280;70518;51.400;7.428;2023-06-22T08:40:56;160277.34;;;24.54;83.91
49689;BME280;70518;51.400;7.428;2023-06-22T08:43:21;160325.47;;;24.73;82.32
49689;BME280;70518;51.400;7.428;2023-06-22T08:45:47;160360.63;;;24.86;81.34
49689;BME280;70518;51.400;7.428;2023-06-22T08:48:12;160385.38;;;24.96;80.37
49689;BME280;70518;51.400;7.428;2023-06-22T08:50:37;160415.28;;;25.08;80.90
49689;BME280;70518;51.400;7.428;2023-06-22T08:53:05;160447.81;;;25.20;80.08
49689;BME280;70518;51.400;7.428;2023-06-22T08:55:30;160481.63;;;25.33;80.08
49689;BME280;70518;51.400;7.428;2023-06-22T08:57:56;160527.22;;;25.51;77.88
49689;BME280;70518;51.400;7.428;2023-06-22T09:00:21;160563.69;;;25.65;77.96
49689;BME280;70518;51.400;7.428;2023-06-22T09:02:47;160607.94;;;25.82;77.30
49689;BME280;70518;51.400;7.428;2023-06-22T09:05:12;160645.69;;;25.97;76.52
49689;BME280;70518;51.400;7.428;2023-06-22T09:07:38;160658.69;;;26.02;76.12
49689;BME280;70518;51.400;7.428;2023-06-22T09:10:04;160663.94;;;26.04;77.35
49689;BME280;70518;51.400;7.428;2023-06-22T09:12:30;160658.69;;;26.02;76.73
49689;BME280;70518;51.400;7.428;2023-06-22T09:14:55;160671.75;;;26.07;76.24
49689;BME280;70518;51.400;7.428;2023-06-22T09:17:22;160710.81;;;26.22;76.93
49689;BME280;70518;51.400;7.428;2023-06-22T09:19:47;160756.38;;;26.40;75.81
49689;BME280;70518;51.400;7.428;2023-06-22T09:22:13;160798.06;;;26.56;73.89
49689;BME280;70518;51.400;7.428;2023-06-22T09:24:39;160826.69;;;26.67;72.77
49689;BME280;70518;51.400;7.428;2023-06-22T09:27:04;160846.25;;;26.75;72.49
49689;BME280;70518;51.400;7.428;2023-06-22T09:29:30;160889.25;;;26.91;70.99
49689;BME280;70518;51.400;7.428;2023-06-22T09:31:58;160901.00;;;26.96;70.06
49689;BME280;70518;51.400;7.428;2023-06-22T09:34:23;160910.09;;;26.99;69.67
49689;BME280;70518;51.400;7.428;2023-06-22T09:36:48;160916.63;;;27.02;67.06
49689;BME280;70518;51.400;7.428;2023-06-22T09:39:14;160915.31;;;27.01;66.92
49689;BME280;70518;51.400;7.428;2023-06-22T09:41:39;160968.72;;;27.22;66.13
49689;BME280;70518;51.400;7.428;2023-06-22T09:44:05;160976.53;;;27.25;64.75
49689;BME280;70518;51.400;7.428;2023-06-22T09:46:30;160997.38;;;27.33;64.79
49689;BME280;70518;51.400;7.428;2023-06-22T09:48:55;160989.56;;;27.30;65.94
49689;BME280;70518;51.400;7.428;2023-06-22T09:51:21;160976.53;;;27.25;66.85
49689;BME280;70518;51.400;7.428;2023-06-22T09:53:48;160993.50;;;27.32;67.57
49689;BME280;70518;51.400;7.428;2023-06-22T09:56:14;161010.38;;;27.38;67.91
49689;BME280;70518;51.400;7.428;2023-06-22T09:58:41;160996.06;;;27.33;68.36
49689;BME280;70518;51.400;7.428;2023-06-22T10:01:07;160984.34;;;27.28;68.78
49689;BME280;70518;51.400;7.428;2023-06-22T10:03:32;160997.38;;;27.33;69.16
49689;BME280;70518;51.400;7.428;2023-06-22T10:05:58;160977.84;;;27.26;69.03
49689;BME280;70518;51.400;7.428;2023-06-22T10:08:23;160975.22;;;27.25;69.77
49689;BME280;70518;51.400;7.428;2023-06-22T10:10:48;160950.47;;;27.15;69.79
49689;BME280;70518;51.400;7.428;2023-06-22T10:13:14;160980.44;;;27.27;69.65
49689;BME280;70518;51.400;7.428;2023-06-22T10:15:40;161019.56;;;27.42;68.78
49689;BME280;70518;51.400;7.428;2023-06-22T10:18:05;161039.13;;;27.49;69.14
49689;BME280;70518;51.400;7.428;2023-06-22T10:20:31;161070.41;;;27.62;69.19
49689;BME280;70518;51.400;7.428;2023-06-22T10:22:56;161072.97;;;27.63;70.22
49689;BME280;70518;51.400;7.428;2023-06-22T10:25:22;161101.63;;;27.74;70.61
49689;BME280;70518;51.400;7.428;2023-06-22T10:27:47;161130.31;;;27.85;70.48
49689;BME280;70518;51.400;7.428;2023-06-22T10:30:13;161129.00;;;27.84;67.55
49689;BME280;70518;51.400;7.428;2023-06-22T10:32:39;161113.38;;;27.78;68.55
49689;BME280;70518;51.400;7.428;2023-06-22T10:35:05;161095.13;;;27.71;67.91
49689;BME280;70518;51.400;7.428;2023-06-22T10:37:30;161082.09;;;27.66;68.93
49689;BME280;70518;51.400;7.428;2023-06-22T10:39:56;161099.06;;;27.73;68.46
49689;BME280;70518;51.400;7.428;2023-06-22T10:42:21;161102.94;;;27.74;69.86
49689;BME280;70518;51.400;7.428;2023-06-22T10:44:46;161105.56;;;27.75;70.14
49689;BME280;70518;51.400;7.428;2023-06-22T10:47:12;161092.53;;;27.70;71.03
49689;BME280;70518;51.400;7.428;2023-06-22T10:49:38;161105.56;;;27.75;71.06
49689;BME280;70518;51.400;7.428;2023-06-22T10:52:04;161084.72;;;27.67;71.67
49689;BME280;70518;51.400;7.428;2023-06-22T10:54:29;161104.25;;;27.75;71.68
49689;BME280;70518;51.400;7.428;2023-06-22T10:56:54;161092.53;;;27.70;71.52
49689;BME280;70518;51.400;7.428;2023-06-22T10:59:19;161063.84;;;27.59;72.49
49689;BME280;70518;51.400;7.428;2023-06-22T11:01:46;161079.47;;;27.65;71.90
49689;BME280;70518;51.400;7.428;2023-06-22T11:04:12;161078.16;;;27.65;71.91
49689;BME280;70518;51.400;7.428;2023-06-22T11:06:37;161100.38;;;27.73;72.12
49689;BME280;70518;51.400;7.428;2023-06-22T11:09:02;161105.56;;;27.75;75.78
49689;BME280;70518;51.400;7.428;2023-06-22T11:11:29;161074.28;;;27.63;78.93
49689;BME280;70518;51.400;7.428;2023-06-22T11:13:54;161057.34;;;27.56;78.92
49689;BME280;70518;51.400;7.428;2023-06-22T11:16:19;161052.16;;;27.54;80.47
49689;BME280;70518;51.400;7.428;2023-06-22T11:18:45;161045.63;;;27.52;82.38
49689;BME280;70518;51.400;7.428;2023-06-22T11:21:10;161045.63;;;27.52;86.69
49689;BME280;70518;51.400;7.428;2023-06-22T11:23:35;161026.06;;;27.44;91.56
49689;BME280;70518;51.400;7.428;2023-06-22T11:26:00;161013.00;;;27.39;95.77
49689;BME280;70518;51.400;7.428;2023-06-22T11:28:26;160977.84;;;27.26;99.74
49689;BME280;70518;51.400;7.428;2023-06-22T11:30:51;160962.22;;;27.20;100.00
49689;BME280;70518;51.400;7.428;2023-06-22T11:33:17;160915.31;;;27.01;100.00
49689;BME280;70518;51.400;7.428;2023-06-22T11:35:42;160882.75;;;26.89;100.00
49689;BME280;70518;51.400;7.428;2023-06-22T11:38:07;160891.88;;;26.92;100.00
49689;BME280;70518;51.400;7.428;2023-06-22T11:40:33;160873.63;;;26.85;100.00
49689;BME280;70518;51.400;7.428;2023-06-22T11:42:58;160860.63;;;26.80;100.00
49689;BME280;70518;51.400;7.428;2023-06-22T11:45:24;160843.63;;;26.74;100.00
49689;BME280;70518;51.400;7.428;2023-06-22T11:47:49;160830.63;;;26.69;100.00
49689;BME280;70518;51.400;7.428;2023-06-22T11:50:14;160799.38;;;26.57;100.00
49689;BME280;70518;51.400;7.428;2023-06-22T11:52:40;160774.63;;;26.47;100.00
49689;BME280;70518;51.400;7.428;2023-06-22T11:55:05;160727.75;;;26.29;100.00
49689;BME280;70518;51.400;7.428;2023-06-22T11:57:36;160678.25;;;26.10;100.00
49689;BME280;70518;51.400;7.428;2023-06-22T12:00:03;160657.38;;;26.02;100.00
49689;BME280;70518;51.400;7.428;2023-06-22T12:02:31;160633.94;;;25.92;100.00
49689;BME280;70518;51.400;7.428;2023-06-22T12:04:57;160632.69;;;25.92;100.00
49689;BME280;70518;51.400;7.428;2023-06-22T12:07:23;160597.50;;;25.78;100.00
49689;BME280;70518;51.400;7.428;2023-06-22T12:09:48;160561.09;;;25.64;100.00
49689;BME280;70518;51.400;7.428;2023-06-22T12:12:14;160528.53;;;25.52;100.00
49689;BME280;70518;51.400;7.428;2023-06-22T12:14:39;160523.34;;;25.50;100.00
49689;BME280;70518;51.400;7.428;2023-06-22T12:17:04;160472.56;;;25.30;100.00
49689;BME280;70518;51.400;7.428;2023-06-22T12:19:29;160447.81;;;25.20;100.00
49689;BME280;70518;51.400;7.428;2023-06-22T12:21:55;160419.16;;;25.09;100.00
49689;BME280;70518;51.400;7.428;2023-06-22T12:24:20;160441.31;;;25.18;100.00
49689;BME280;70518;51.400;7.428;2023-06-22T12:26:45;160426.97;;;25.12;100.00
49689;BME280;70518;51.400;7.428;2023-06-22T12:29:10;160384.06;;;24.96;100.00
49689;BME280;70518;51.400;7.428;2023-06-22T12:31:36;160279.94;;;24.55;100.00
49689;BME280;70518;51.400;7.428;2023-06-22T12:34:04;160268.22;;;24.51;100.00
49689;BME280;70518;51.400;7.428;2023-06-22T12:36:29;160259.09;;;24.47;100.00
49689;BME280;70518;51.400;7.428;2023-06-22T12:38:54;160248.72;;;24.43;100.00
49689;BME280;70518;51.400;7.428;2023-06-22T12:41:20;160243.50;;;24.41;100.00
49689;BME280;70518;51.400;7.428;2023-06-22T12:43:46;160261.72;;;24.48;100.00
49689;BME280;70518;51.400;7.428;2023-06-22T12:46:11;160316.38;;;24.69;100.00
49689;BME280;70518;51.400;7.428;2023-06-22T12:48:36;160334.59;;;24.76;100.00